Terminal Aerodrome Forecast
Issued by NWS Sioux Falls, SD

Home | Current Version | Previous Version | Graphics & Text | Print | Product List | Glossary Off
Versions: 1 2 3 4 5 6 7 8 9 10 11 12 13 14 15 16 17

000
FTUS43 KFSD 192342
TAFSUX
TAF
KSUX 192342Z 2000/2024 01012KT P6SM BKN009 OVC015
     FM200400 01010KT 5SM -SNPL BR OVC015
     FM200600 01008KT 1 1/2SM -PL OVC015
     FM200800 34009KT 3SM -FZRAPL OVC015
     FM201000 34011KT 6SM -SN OVC015
     FM201200 34012KT P6SM OVC030
     FM201800 32016G24KT P6SM BKN035=

USA.gov is the U.S. government's official web portal to all federal, state and local government web resources and services.